Time;durP1;ratioP1;P1;durP2;ratioP2;P2;SDS_P1;SDS_P2;PMS_P1;PMS_P2;Temp;Humidity;BMP_temperature;BMP_pressure;BME280_temperature;BME280_humidity;BME280_pressure;Samples;Min_cycle;Max_cycle;Signal;HPM_P1;HPM_P2
2021/04/04 00:01:13;;;;;;;8.73;4.13;;;;;;;-5.03;86.45;101731.56;5033713;28;20045;-87
2021/04/04 00:03:40;;;;;;;7.17;3.37;;;;;;;-5.06;86.80;101729.66;5017066;28;20094;-87
2021/04/04 00:06:06;;;;;;;7.17;3.73;;;;;;;-5.07;87.59;101733.03;5034176;28;20045;-87
2021/04/04 00:08:32;;;;;;;4.97;3.40;;;;;;;-5.12;87.29;101730.22;5033900;28;20041;-87
2021/04/04 00:10:59;;;;;;;5.33;3.70;;;;;;;-5.16;87.83;101724.75;5032998;28;20037;-87
2021/04/04 00:13:25;;;;;;;5.07;3.30;;;;;;;-5.19;88.27;101735.78;5032803;28;21508;-87
2021/04/04 00:15:52;;;;;;;6.93;3.53;;;;;;;-5.24;88.36;101737.19;5033642;28;20045;-87
2021/04/04 00:18:18;;;;;;;5.40;3.07;;;;;;;-5.26;88.19;101733.63;5032949;28;20049;-86
2021/04/04 00:20:44;;;;;;;5.10;3.10;;;;;;;-5.30;87.80;101733.34;5017144;28;20033;-87
2021/04/04 00:23:10;;;;;;;5.00;2.97;;;;;;;-5.28;86.99;101736.91;5033667;28;20148;-87
2021/04/04 00:25:37;;;;;;;5.60;3.43;;;;;;;-5.28;88.55;101724.03;5032061;28;20511;-87
2021/04/04 00:28:03;;;;;;;4.80;3.37;;;;;;;-5.28;88.83;101716.31;5030988;28;20041;-86
2021/04/04 00:30:30;;;;;;;5.60;3.50;;;;;;;-5.31;89.10;101721.25;5032520;28;20045;-86
2021/04/04 00:32:56;;;;;;;7.20;3.47;;;;;;;-5.35;87.83;101727.94;5049939;28;20052;-87
2021/04/04 00:35:22;;;;;;;4.60;3.27;;;;;;;-5.36;89.34;101726.16;5015975;28;20148;-87
2021/04/04 00:37:53;;;;;;;5.50;3.30;;;;;;;-5.37;89.31;101719.22;5017033;28;20045;-87
2021/04/04 00:40:23;;;;;;;7.03;3.67;;;;;;;-5.40;89.03;101719.03;5050496;28;20041;-87
2021/04/04 00:42:50;;;;;;;5.10;3.20;;;;;;;-5.45;88.95;101720.44;5017275;28;20060;-87
2021/04/04 00:45:19;;;;;;;5.83;3.10;;;;;;;-5.50;87.98;101722.72;5018951;28;20063;-86
2021/04/04 00:47:46;;;;;;;3.70;2.70;;;;;;;-5.53;88.02;101729.38;5017625;28;20095;-86
2021/04/04 00:50:14;;;;;;;6.13;3.07;;;;;;;-5.54;87.63;101718.22;5017612;28;20525;-86
2021/04/04 00:52:40;;;;;;;4.40;2.80;;;;;;;-5.56;87.56;101724.03;5033699;28;20043;-87
2021/04/04 00:55:08;;;;;;;4.40;2.60;;;;;;;-5.58;87.38;101731.66;5025151;28;20125;-86
2021/04/04 00:57:34;;;;;;;5.90;3.67;;;;;;;-5.58;86.88;101730.78;5017065;28;20474;-86
2021/04/04 01:00:02;;;;;;;5.37;2.90;;;;;;;-5.62;87.32;101724.56;5034981;28;20040;-86
2021/04/04 01:02:28;;;;;;;4.50;2.80;;;;;;;-5.64;88.02;101725.25;5036389;28;20044;-86
2021/04/04 01:04:56;;;;;;;4.80;2.60;;;;;;;-5.66;87.70;101720.00;5020410;28;20047;-87
2021/04/04 01:07:23;;;;;;;5.40;2.80;;;;;;;-5.68;87.10;101724.19;5036549;28;20132;-87
2021/04/04 01:09:49;;;;;;;5.33;2.57;;;;;;;-5.71;87.00;101740.34;5020377;28;20100;-87
2021/04/04 01:12:50;;;;;;;3.23;2.40;;;;;;;-5.73;87.16;101736.75;5019999;28;20138;-86
2021/04/04 01:15:23;;;;;;;3.30;2.10;;;;;;;-5.74;87.48;101739.25;4993667;28;20121;-87
2021/04/04 01:17:50;;;;;;;4.27;2.40;;;;;;;-5.75;88.07;101735.78;5052364;28;20068;-86
2021/04/04 01:20:21;;;;;;;3.70;2.50;;;;;;;-5.78;88.18;101732.13;5020002;28;20482;-87
2021/04/04 01:22:50;;;;;;;3.67;2.40;;;;;;;-5.81;88.22;101725.09;5035346;28;20111;-87
2021/04/04 01:25:25;;;;;;;3.50;2.30;;;;;;;-5.82;88.31;101731.03;5035367;28;20043;-86
2021/04/04 01:27:55;;;;;;;4.80;2.23;;;;;;;-5.82;88.20;101731.03;5011899;28;20041;-86
2021/04/04 01:30:25;;;;;;;4.33;2.20;;;;;;;-5.84;88.05;101724.91;5035220;28;20583;-86
2021/04/04 01:32:51;;;;;;;3.57;2.40;;;;;;;-5.83;88.45;101728.38;5019093;28;20045;-86
2021/04/04 01:35:19;;;;;;;3.40;2.20;;;;;;;-5.88;87.96;101722.97;5036873;28;20063;-86
2021/04/04 01:37:47;;;;;;;6.17;2.40;;;;;;;-5.89;88.73;101721.16;5019714;28;20045;-86
2021/04/04 01:40:15;;;;;;;3.73;2.43;;;;;;;-5.93;89.33;101714.09;5035284;28;20051;-86
2021/04/04 01:42:43;;;;;;;3.90;2.30;;;;;;;-5.97;89.03;101715.59;5035167;28;20053;-86
2021/04/04 01:45:10;;;;;;;2.83;1.90;;;;;;;-6.00;88.27;101715.38;5032386;28;20057;-86
2021/04/04 01:47:37;;;;;;;5.90;2.07;;;;;;;-6.00;89.13;101709.34;5015484;28;20513;-85
2021/04/04 01:50:06;;;;;;;4.37;2.20;;;;;;;-6.00;89.09;101709.34;5016787;28;20041;-85
2021/04/04 01:52:33;;;;;;;4.13;2.20;;;;;;;-5.99;89.32;101714.56;5049703;28;20489;-85
2021/04/04 01:55:00;;;;;;;3.70;1.80;;;;;;;-6.00;89.09;101706.78;5017387;28;20076;-85
2021/04/04 01:57:28;;;;;;;3.17;2.10;;;;;;;-6.00;90.05;101709.34;5015666;28;20064;-85
2021/04/04 01:59:54;;;;;;;3.10;2.27;;;;;;;-6.01;91.07;101707.56;5034298;28;20065;-85
2021/04/04 02:02:20;;;;;;;3.70;2.00;;;;;;;-6.03;91.57;101702.34;5033140;28;20132;-85
2021/04/04 02:04:49;;;;;;;3.70;1.80;;;;;;;-6.08;90.98;101692.53;5033821;28;20067;-85
2021/04/04 02:07:16;;;;;;;3.77;2.07;;;;;;;-6.11;89.81;101702.66;5016842;28;20041;-86
2021/04/04 02:09:44;;;;;;;2.60;1.90;;;;;;;-6.14;88.81;101687.88;5049201;28;20667;-85
2021/04/04 02:12:11;;;;;;;4.40;2.27;;;;;;;-6.15;89.75;101692.94;5025922;28;20048;-85
2021/04/04 02:14:39;;;;;;;3.87;2.10;;;;;;;-6.14;90.23;101698.19;5040488;28;20550;-85
2021/04/04 02:17:05;;;;;;;3.83;1.90;;;;;;;-6.13;90.09;101693.94;5017118;28;20061;-85
2021/04/04 02:19:31;;;;;;;2.63;1.60;;;;;;;-6.14;90.20;101695.59;5032165;28;20049;-85
2021/04/04 02:21:58;;;;;;;3.60;1.80;;;;;;;-6.16;90.53;101686.03;5032746;28;20079;-86
2021/04/04 02:24:26;;;;;;;2.50;1.93;;;;;;;-6.15;91.25;101682.66;5033787;28;20064;-85
2021/04/04 02:26:53;;;;;;;3.20;1.70;;;;;;;-6.16;90.42;101683.44;5031666;28;20045;-85
2021/04/04 02:29:20;;;;;;;1.83;1.47;;;;;;;-6.20;90.33;101686.63;5016395;28;20047;-85
2021/04/04 02:31:53;;;;;;;2.27;1.60;;;;;;;-6.22;90.55;101681.41;5032288;28;20436;-85
2021/04/04 02:34:21;;;;;;;2.67;1.73;;;;;;;-6.24;91.09;101676.13;5023283;28;20045;-85
2021/04/04 02:36:49;;;;;;;2.90;1.80;;;;;;;-6.29;90.63;101674.09;5013166;28;20418;-85
2021/04/04 02:39:32;;;;;;;2.60;1.30;;;;;;;-6.31;90.33;101673.97;5029313;28;20049;-85
2021/04/04 02:41:59;;;;;;;3.53;1.70;;;;;;;-6.31;90.03;101679.09;5049525;28;20056;-85
2021/04/04 02:44:27;;;;;;;2.20;1.40;;;;;;;-6.32;90.48;101676.44;5023733;28;20680;-85
2021/04/04 02:47:00;;;;;;;2.83;1.47;;;;;;;-6.35;90.81;101672.00;5033061;28;20045;-85
2021/04/04 02:49:31;;;;;;;2.07;1.63;;;;;;;-6.36;90.62;101677.06;5013598;28;20056;-85
2021/04/04 02:52:01;;;;;;;3.07;1.57;;;;;;;-6.39;90.47;101677.75;5033444;28;20041;-85
2021/04/04 02:54:29;;;;;;;2.53;1.63;;;;;;;-6.40;90.92;101672.50;5032984;28;20048;-86
2021/04/04 02:56:56;;;;;;;3.33;1.90;;;;;;;-6.42;90.83;101669.84;5016722;28;20875;-85
2021/04/04 02:59:26;;;;;;;3.77;1.77;;;;;;;-6.46;91.13;101670.44;5013272;28;20042;-85
2021/04/04 03:01:53;;;;;;;2.57;1.87;;;;;;;-6.47;91.64;101673.81;5032341;28;20326;-85
2021/04/04 03:04:22;;;;;;;2.20;1.60;;;;;;;-6.48;91.03;101665.97;5017904;28;20045;-86
2021/04/04 03:06:49;;;;;;;1.90;1.37;;;;;;;-6.50;90.83;101671.03;5018671;28;20295;-86
2021/04/04 03:09:17;;;;;;;2.77;1.87;;;;;;;-6.50;90.27;101658.19;5036234;28;20068;-86
2021/04/04 03:11:44;;;;;;;2.83;1.53;;;;;;;-6.50;89.97;101658.19;5031986;28;20052;-87
2021/04/04 03:14:11;;;;;;;3.47;1.60;;;;;;;-6.50;90.59;101657.28;5032937;28;20287;-86
2021/04/04 03:16:37;;;;;;;2.30;1.80;;;;;;;-6.50;90.73;101647.00;5031820;28;20331;-86
2021/04/04 03:19:04;;;;;;;2.33;1.87;;;;;;;-6.50;90.68;101647.00;5025717;28;20548;-86
2021/04/04 03:21:34;;;;;;;3.00;1.90;;;;;;;-6.51;91.20;101646.13;5034855;28;20300;-86
2021/04/04 03:24:01;;;;;;;2.07;1.40;;;;;;;-6.55;90.93;101647.63;5034417;28;20322;-86
2021/04/04 03:26:28;;;;;;;2.90;1.93;;;;;;;-6.56;90.63;101653.56;5019234;28;20037;-86
2021/04/04 03:28:55;;;;;;;1.87;1.47;;;;;;;-6.57;91.34;101645.72;5020202;28;20475;-86
2021/04/04 03:31:21;;;;;;;3.43;1.87;;;;;;;-6.55;91.53;101639.03;5039621;28;20091;-86
2021/04/04 03:33:48;;;;;;;2.33;1.70;;;;;;;-6.56;90.79;101639.78;5037818;28;20295;-86
2021/04/04 03:36:16;;;;;;;2.40;1.50;;;;;;;-6.57;91.22;101640.56;5016881;28;20076;-85
2021/04/04 03:38:44;;;;;;;2.57;1.90;;;;;;;-6.57;91.51;101630.28;5033478;28;20528;-86
2021/04/04 03:41:12;;;;;;;3.47;1.80;;;;;;;-6.59;91.94;101642.16;5015606;28;20288;-85
2021/04/04 03:43:39;;;;;;;2.47;1.67;;;;;;;-6.62;91.54;101637.72;5030540;28;20295;-85
2021/04/04 03:46:09;;;;;;;2.67;1.87;;;;;;;-6.62;91.79;101637.72;5032749;28;20287;-85
2021/04/04 03:48:35;;;;;;;2.73;1.73;;;;;;;-6.63;90.88;101646.25;5025363;28;20832;-85
2021/04/04 03:51:06;;;;;;;2.83;1.50;;;;;;;-6.62;90.77;101639.41;5019837;28;20136;-85
2021/04/04 03:53:34;;;;;;;3.53;1.73;;;;;;;-6.62;91.35;101641.97;5026610;28;20319;-86
2021/04/04 03:56:02;;;;;;;2.37;1.60;;;;;;;-6.64;91.44;101639.31;5033826;28;20298;-86
2021/04/04 03:58:31;;;;;;;3.40;1.67;;;;;;;-6.68;90.72;101634.75;5009436;28;20284;-86
2021/04/04 04:00:59;;;;;;;3.77;2.00;;;;;;;-6.69;90.39;101639.81;5033997;28;20292;-86
2021/04/04 04:03:26;;;;;;;3.07;1.70;;;;;;;-6.69;90.66;101629.53;5032903;28;20299;-85
2021/04/04 04:05:53;;;;;;;3.20;1.60;;;;;;;-6.70;89.68;101632.91;5033171;28;20322;-86
2021/04/04 04:08:19;;;;;;;2.20;1.50;;;;;;;-6.72;89.87;101629.34;5016572;28;20989;-85
2021/04/04 04:10:46;;;;;;;4.23;2.07;;;;;;;-6.74;89.22;101628.34;5041097;28;20291;-84
2021/04/04 04:13:14;;;;;;;3.27;1.57;;;;;;;-6.76;89.32;101624.78;5032766;28;20295;-85
2021/04/04 04:15:40;;;;;;;3.03;1.70;;;;;;;-6.76;89.91;101620.53;5031228;28;20875;-85
2021/04/04 04:18:07;;;;;;;1.90;1.40;;;;;;;-6.77;91.30;101625.56;5015944;28;20302;-85
2021/04/04 04:20:35;;;;;;;2.57;1.70;;;;;;;-6.78;91.66;101623.81;5032430;28;20300;-85
2021/04/04 04:23:05;;;;;;;2.80;1.80;;;;;;;-6.79;91.53;101622.91;5034099;28;20379;-86
2021/04/04 04:25:32;;;;;;;3.23;1.70;;;;;;;-6.80;91.23;101623.72;5031067;28;20303;-86
2021/04/04 04:27:59;;;;;;;2.37;1.50;;;;;;;-6.83;90.13;101621.81;5049021;28;20302;-85
2021/04/04 04:30:26;;;;;;;2.90;1.73;;;;;;;-6.84;89.82;101627.75;5012215;28;20290;-85
2021/04/04 04:32:55;;;;;;;1.80;1.40;;;;;;;-6.85;89.53;101617.38;5018376;28;20298;-87
2021/04/04 04:35:23;;;;;;;1.77;1.47;;;;;;;-6.82;90.13;101617.56;5035922;28;20292;-86
2021/04/04 04:37:50;;;;;;;3.37;1.80;;;;;;;-6.80;90.79;101618.56;5021670;28;20345;-86
2021/04/04 04:40:17;;;;;;;2.50;1.57;;;;;;;-6.77;90.53;101616.19;5021114;28;20378;-85
2021/04/04 04:42:47;;;;;;;2.70;1.60;;;;;;;-6.74;90.35;101615.47;5025083;28;20293;-86
2021/04/04 04:45:24;;;;;;;2.40;1.50;;;;;;;-6.73;90.41;101622.41;5039205;28;20306;-86
2021/04/04 04:47:54;;;;;;;2.87;1.70;;;;;;;-6.71;90.76;101619.16;5037783;28;20390;-86
2021/04/04 04:50:21;;;;;;;1.57;1.40;;;;;;;-6.70;90.59;101617.47;5021714;28;20627;-85
2021/04/04 04:52:48;;;;;;;2.17;1.50;;;;;;;-6.68;90.28;101610.75;5021181;28;20721;-86
2021/04/04 04:55:15;;;;;;;3.17;2.00;;;;;;;-6.67;90.42;101613.41;5034249;28;20407;-86
2021/04/04 04:57:43;;;;;;;2.53;1.50;;;;;;;-6.63;90.07;101607.69;5036964;28;20045;-86
2021/04/04 05:00:10;;;;;;;2.53;1.63;;;;;;;-6.58;90.18;101603.72;5031918;28;20339;-86
2021/04/04 05:02:37;;;;;;;2.83;1.50;;;;;;;-6.52;90.57;101598.97;5037620;28;20303;-86
2021/04/04 05:05:05;;;;;;;3.73;1.40;;;;;;;-6.46;90.55;101601.03;5037680;28;20292;-86
2021/04/04 05:07:33;;;;;;;2.63;1.50;;;;;;;-6.42;90.15;101602.09;5036069;28;20291;-86
2021/04/04 05:10:00;;;;;;;3.87;1.67;;;;;;;-6.37;90.55;101599.03;5019984;28;20303;-84
2021/04/04 05:12:28;;;;;;;3.33;1.60;;;;;;;-6.30;90.79;101597.75;5037710;28;20299;-86
2021/04/04 05:14:54;;;;;;;2.63;1.80;;;;;;;-6.28;91.23;101602.19;5021320;28;20318;-86
2021/04/04 05:17:21;;;;;;;2.00;1.87;;;;;;;-6.22;91.25;101595.63;5021927;28;20068;-86
2021/04/04 05:19:48;;;;;;;4.33;1.90;;;;;;;-6.18;90.76;101592.47;5020337;28;20303;-87
2021/04/04 05:22:15;;;;;;;3.17;1.63;;;;;;;-6.14;90.54;101582.44;5037349;28;20055;-86
2021/04/04 05:24:42;;;;;;;3.87;1.77;;;;;;;-6.09;89.80;101587.88;5053697;28;20313;-86
2021/04/04 05:27:08;;;;;;;2.10;1.50;;;;;;;-6.06;89.57;101578.66;5020868;28;20048;-86
2021/04/04 05:29:35;;;;;;;2.07;1.30;;;;;;;-6.01;89.99;101574.69;5032457;28;20389;-86
2021/04/04 05:32:01;;;;;;;2.20;1.70;;;;;;;-5.93;89.30;101576.84;5021333;28;20291;-86
2021/04/04 05:34:29;;;;;;;2.60;1.30;;;;;;;-5.88;89.12;101573.72;5052648;28;20041;-86
2021/04/04 05:36:57;;;;;;;1.97;1.30;;;;;;;-5.82;89.15;101576.63;5021074;28;20057;-86
2021/04/04 05:39:27;;;;;;;3.17;1.70;;;;;;;-5.76;90.47;101577.00;5037569;28;20509;-86
2021/04/04 05:41:55;;;;;;;3.27;1.80;;;;;;;-5.70;90.80;101577.38;5020429;28;20540;-86
2021/04/04 05:44:34;;;;;;;3.77;1.80;;;;;;;-5.62;91.23;101571.81;5020235;28;20492;-86
2021/04/04 05:47:08;;;;;;;2.93;1.83;;;;;;;-5.53;92.71;101565.50;5036079;28;20502;-86
2021/04/04 05:49:40;;;;;;;3.22;2.00;;;;;;;-5.46;93.29;101567.66;5020949;28;20140;-86
2021/04/04 05:52:20;;;;;;;2.43;1.83;;;;;;;-5.38;93.62;101568.09;5021526;28;20073;-86
2021/04/04 05:54:58;;;;;;;2.43;1.87;;;;;;;-5.29;93.46;101565.16;5030452;28;20037;-86
2021/04/04 05:57:33;;;;;;;3.33;1.80;;;;;;;-5.21;93.85;101569.06;5020283;28;20339;-86
2021/04/04 06:00:08;;;;;;;3.50;2.10;;;;;;;-5.15;93.74;101564.25;5032665;28;20132;-86
2021/04/04 06:02:37;;;;;;;2.50;1.93;;;;;;;-5.06;93.28;101563.88;5020329;28;20569;-85
2021/04/04 06:05:33;;;;;;;2.47;1.90;;;;;;;-4.96;91.99;101564.50;5052434;28;20045;-86
2021/04/04 06:08:49;;;;;;;2.73;1.93;;;;;;;-4.76;91.84;101569.88;5028759;28;20037;-86
2021/04/04 06:11:22;;;;;;;3.73;2.03;;;;;;;-4.60;91.75;101562.19;5009616;28;20128;-86
2021/04/04 06:14:07;;;;;;;3.33;2.17;;;;;;;-4.45;92.47;101554.41;5036427;28;20103;-86
2021/04/04 06:17:00;;;;;;;2.70;1.90;;;;;;;-4.31;92.44;101564.63;5038033;28;20037;-86
2021/04/04 06:19:46;;;;;;;3.10;1.90;;;;;;;-4.11;93.14;101568.28;5046307;28;20041;-86
2021/04/04 06:22:24;;;;;;;4.77;1.93;;;;;;;-3.25;93.75;101559.78;5036793;28;20044;-86
2021/04/04 06:25:03;;;;;;;3.87;2.40;;;;;;;-1.54;90.64;101555.63;5026649;28;20080;-86
2021/04/04 06:28:12;;;;;;;6.13;2.80;;;;;;;0.41;82.86;101551.94;5034152;28;20493;-84
2021/04/04 06:30:46;;;;;;;3.77;2.80;;;;;;;2.33;75.22;101532.72;5039131;28;20045;-84
2021/04/04 06:33:20;;;;;;;4.10;2.63;;;;;;;3.73;70.92;101530.03;5020908;28;20049;-87
2021/04/04 06:35:49;;;;;;;;;;;;;;;5.00;64.31;101531.56;5036511;28;20104;-86
2021/04/04 06:38:50;;;;;;;3.53;2.63;;;;;;;6.12;58.86;101531.38;5020472;28;19967;-84
2021/04/04 06:41:20;;;;;;;4.67;2.47;;;;;;;6.94;57.33;101531.34;5040968;28;20498;-87
2021/04/04 06:43:53;;;;;;;3.57;2.70;;;;;;;7.55;54.48;101531.75;5032762;28;20553;-87
2021/04/04 06:46:43;;;;;;;3.57;2.50;;;;;;;8.45;52.38;101532.16;5026857;28;20140;-86
2021/04/04 06:49:28;;;;;;;3.10;2.33;;;;;;;9.05;49.08;101528.72;5036184;28;20137;-86
2021/04/04 06:52:26;;;;;;;5.30;3.10;;;;;;;9.59;48.01;101523.38;5037472;28;20520;-86
2021/04/04 06:55:02;;;;;;;5.20;2.80;;;;;;;10.27;45.81;101582.09;5052894;28;20120;-86
2021/04/04 06:57:50;;;;;;;7.97;6.25;;;;;;;11.05;43.06;101523.44;5049547;28;20126;-86
2021/04/04 07:00:37;;;;;;;7.22;5.30;;;;;;;10.05;43.17;101525.81;5036104;28;20037;-87
2021/04/04 07:03:08;;;;;;;6.50;3.97;;;;;;;10.55;41.71;101518.53;5019654;28;20052;-87
2021/04/04 07:05:50;;;;;;;6.30;3.60;;;;;;;10.50;40.81;101520.31;5033630;28;20509;-86
2021/04/04 07:08:35;;;;;;;4.93;3.05;;;;;;;11.34;43.64;101514.34;5032050;28;20067;-87
2021/04/04 07:11:02;;;;;;;5.38;3.03;;;;;;;11.79;39.25;101519.16;5034659;28;20463;-87
2021/04/04 07:13:53;;;;;;;5.32;3.10;;;;;;;11.89;38.68;101519.97;5034164;28;20072;-86
2021/04/04 07:16:44;;;;;;;4.22;3.22;;;;;;;11.25;40.58;101512.66;5043504;28;20068;-87
2021/04/04 07:19:36;;;;;;;4.22;3.17;;;;;;;11.78;38.52;101512.13;5042486;28;20041;-87
2021/04/04 07:22:12;;;;;;;4.13;2.90;;;;;;;12.62;38.30;101503.06;5049095;28;20071;-87
2021/04/04 07:24:53;;;;;;;3.97;2.80;;;;;;;12.21;37.07;101508.97;5018148;28;20044;-87
2021/04/04 07:27:32;;;;;;;4.43;3.13;;;;;;;11.86;39.87;101506.75;5015021;28;20056;-86
2021/04/04 07:30:29;;;;;;;3.75;2.35;;;;;;;13.09;40.94;101495.19;5028042;28;20041;-87
2021/04/04 07:33:08;;;;;;;3.85;2.42;;;;;;;14.86;38.54;101480.84;5020702;28;20045;-88
2021/04/04 07:36:10;;;;;;;3.40;2.72;;;;;;;16.08;33.57;101474.84;5035736;28;20083;-87
2021/04/04 07:38:59;;;;;;;5.50;2.33;;;;;;;14.66;31.85;101477.81;5019541;28;20045;-87
2021/04/04 07:41:47;;;;;;;5.03;2.97;;;;;;;13.95;33.41;101471.41;5048731;28;20037;-87
2021/04/04 07:44:51;;;;;;;3.10;2.80;;;;;;;14.95;35.56;101472.63;5033410;28;20494;-88
2021/04/04 07:47:36;;;;;;;5.65;2.95;;;;;;;15.08;32.74;101467.88;5015519;28;20048;-87
2021/04/04 07:50:08;;;;;;;3.40;2.83;;;;;;;16.46;32.92;101457.63;5032251;28;20501;-88
2021/04/04 07:53:12;;;;;;;4.05;3.13;;;;;;;17.65;31.95;101458.00;5033018;28;20051;-88
2021/04/04 07:55:54;;;;;;;7.28;4.30;;;;;;;17.34;29.69;101455.59;5033776;28;20068;-88
2021/04/04 07:58:25;;;;;;;6.53;4.18;;;;;;;15.36;33.15;101450.25;5016150;28;20087;-87
2021/04/04 08:01:05;;;;;;;6.22;3.90;;;;;;;15.73;34.00;101458.13;5032732;28;20083;-88
2021/04/04 08:03:59;;;;;;;5.68;4.05;;;;;;;15.89;32.49;101453.22;5049484;28;20044;-88
2021/04/04 08:06:30;;;;;;;7.68;4.10;;;;;;;14.61;33.56;101449.53;5032578;28;20045;-87
2021/04/04 08:09:28;;;;;;;7.63;4.43;;;;;;;14.02;36.38;101454.44;5031030;28;20072;-87
2021/04/04 08:12:17;;;;;;;9.15;4.63;;;;;;;15.10;35.02;101444.75;5031090;28;20049;-88
2021/04/04 08:15:05;;;;;;;6.80;4.20;;;;;;;15.55;34.84;101447.06;5041276;28;20096;-86
2021/04/04 08:17:34;;;;;;;6.15;4.18;;;;;;;16.95;33.72;101441.84;5031426;28;20037;-87
2021/04/04 08:20:08;;;;;;;8.82;5.05;;;;;;;16.63;31.30;101449.09;5034333;28;20051;-87
2021/04/04 08:22:39;;;;;;;6.68;4.88;;;;;;;15.08;34.44;101447.47;5017420;28;20595;-87
2021/04/04 08:25:28;;;;;;;10.98;5.53;;;;;;;15.86;35.78;101434.63;5033035;28;20103;-88
2021/04/04 08:27:57;;;;;;;8.00;4.88;;;;;;;16.76;32.33;101442.47;5028567;28;20036;-87
2021/04/04 08:30:28;;;;;;;8.50;4.50;;;;;;;16.79;32.67;101442.34;5013437;28;20454;-88
2021/04/04 08:33:06;;;;;;;6.68;4.35;;;;;;;18.18;31.15;101437.28;5009182;28;20060;-88
2021/04/04 08:35:37;;;;;;;8.73;5.30;;;;;;;18.94;32.35;101441.31;5032764;28;20167;-88
2021/04/04 08:38:08;;;;;;;7.05;4.88;;;;;;;19.98;29.05;101442.00;5017499;28;20041;-88
2021/04/04 08:40:37;;;;;;;9.85;5.57;;;;;;;18.04;30.85;101441.44;5032442;28;20191;-87
2021/04/04 08:43:05;;;;;;;6.40;4.65;;;;;;;17.69;32.98;101435.59;5016592;28;20060;-87
2021/04/04 08:45:40;;;;;;;7.82;4.70;;;;;;;19.90;30.83;101437.00;5016054;28;20095;-88
2021/04/04 08:48:07;;;;;;;8.77;5.00;;;;;;;18.95;28.15;101437.69;5051734;28;20128;-86
2021/04/04 08:50:35;;;;;;;9.52;6.13;;;;;;;19.55;28.58;101429.69;5019834;28;20493;-88
2021/04/04 08:53:14;;;;;;;8.05;5.55;;;;;;;16.21;32.84;101438.88;5034830;28;20044;-88
2021/04/04 08:55:43;;;;;;;9.32;4.80;;;;;;;17.45;34.19;101432.91;5052489;28;20072;-87
2021/04/04 08:58:15;;;;;;;7.65;5.38;;;;;;;17.94;30.62;101436.44;5028869;28;20041;-87
2021/04/04 09:00:48;;;;;;;7.97;5.50;;;;;;;17.83;31.75;101425.28;5034662;28;20381;-88
2021/04/04 09:03:23;;;;;;;7.20;4.70;;;;;;;19.34;30.68;101424.38;5020766;28;20080;-88
2021/04/04 09:06:00;;;;;;;6.47;4.80;;;;;;;20.91;28.22;101410.56;5015372;28;20049;-87
2021/04/04 09:08:31;;;;;;;9.45;5.38;;;;;;;20.47;27.22;101415.53;5026774;28;20056;-87
2021/04/04 09:10:59;;;;;;;10.80;5.93;;;;;;;18.65;28.91;101417.53;5019933;28;20044;-88
2021/04/04 09:13:34;;;;;;;9.25;5.38;;;;;;;16.71;31.97;101423.06;5016360;28;20128;-88
2021/04/04 09:16:08;;;;;;;8.30;5.30;;;;;;;16.42;32.03;101420.47;5016463;28;20076;-88
2021/04/04 09:18:44;;;;;;;8.10;5.57;;;;;;;14.60;35.31;101426.53;5051807;22;20520;-86
2021/04/04 09:21:11;;;;;;;10.25;5.57;;;;;;;16.37;36.43;101422.41;4992570;28;20296;-86
2021/04/04 09:23:37;;;;;;;8.93;4.93;;;;;;;18.65;32.90;101423.78;4983916;28;20443;-87
2021/04/04 09:26:07;;;;;;;9.00;5.38;;;;;;;19.55;31.67;101417.16;4976538;28;20510;-87
2021/04/04 09:28:38;;;;;;;9.13;5.00;;;;;;;20.36;27.58;101404.44;4977505;28;20043;-87
2021/04/04 09:31:06;;;;;;;8.10;5.63;;;;;;;19.68;29.08;101404.97;4962277;28;20298;-88
2021/04/04 09:33:37;;;;;;;8.27;5.95;;;;;;;20.10;28.04;101419.13;4992124;28;20627;-87
2021/04/04 09:36:09;;;;;;;8.27;5.47;;;;;;;18.30;28.94;101411.84;4988742;28;20133;-86
2021/04/04 09:38:40;;;;;;;10.18;6.03;;;;;;;16.40;32.15;101401.84;4988836;28;20042;-86
2021/04/04 09:41:08;;;;;;;8.10;5.43;;;;;;;17.60;30.21;101410.09;4975495;28;20081;-86
2021/04/04 09:44:08;;;;;;;11.70;5.60;;;;;;;18.51;31.12;101402.06;4975932;28;20057;-87
2021/04/04 10:54:00;;;;;;;10.70;5.72;;;;;;;18.91;28.56;101323.59;5103383;27;20757;-71
2021/04/04 10:56:27;;;;;;;9.25;5.13;;;;;;;18.20;29.71;101314.19;5069238;28;20083;-71
2021/04/04 10:58:54;;;;;;;9.35;5.53;;;;;;;18.68;28.50;101305.91;5071728;28;20051;-73
2021/04/04 11:01:20;;;;;;;7.32;5.20;;;;;;;17.45;31.25;101315.34;5076238;28;20036;-70
2021/04/04 11:03:47;;;;;;;11.50;5.47;;;;;;;15.58;34.57;101321.81;5077639;28;20566;-73
2021/04/04 11:06:14;;;;;;;9.55;6.10;;;;;;;14.71;37.21;101301.25;5058592;28;20615;-73
2021/04/04 11:08:41;;;;;;;7.80;4.90;;;;;;;14.97;38.17;101291.69;5063496;28;20370;-70
2021/04/04 11:11:08;;;;;;;9.43;5.43;;;;;;;15.09;37.41;101288.66;5066662;28;20058;-70
2021/04/04 11:13:36;;;;;;;10.30;5.40;;;;;;;16.15;36.42;101279.16;5072058;28;20132;-72
2021/04/04 11:16:08;;;;;;;9.80;5.10;;;;;;;16.04;34.64;101278.59;5085779;28;20046;-74
2021/04/04 11:18:51;;;;;;;8.30;4.82;;;;;;;17.37;34.26;101265.84;5082022;28;20141;-73
2021/04/04 11:21:34;;;;;;;11.10;4.97;;;;;;;18.34;31.10;101266.34;5068252;28;20403;-71
2021/04/04 11:24:01;;;;;;;9.40;6.05;;;;;;;17.40;32.22;101276.38;5069424;28;20557;-73
2021/04/04 11:26:33;;;;;;;8.13;5.13;;;;;;;17.63;32.66;101270.16;5074679;28;20135;-74
2021/04/04 11:29:19;;;;;;;10.88;6.20;;;;;;;16.75;33.69;101269.09;5067190;28;20059;-73
2021/04/04 11:31:52;;;;;;;7.75;5.95;;;;;;;16.15;34.98;101265.81;5064161;28;20055;-74
2021/04/04 11:34:31;;;;;;;9.68;5.35;;;;;;;16.88;34.14;101251.66;5062784;28;20523;-73
2021/04/04 11:37:02;;;;;;;8.38;5.65;;;;;;;16.10;34.52;101266.88;5067100;28;20048;-72
2021/04/04 11:39:28;;;;;;;8.65;5.78;;;;;;;15.77;35.27;101246.63;5065143;28;20071;-74
2021/04/04 11:41:58;;;;;;;12.23;6.25;;;;;;;15.41;35.95;101237.13;5081870;28;20039;-72
2021/04/04 11:44:31;;;;;;;8.82;5.35;;;;;;;16.00;35.89;101232.53;5080820;28;20143;-74
2021/04/04 11:47:09;;;;;;;7.57;5.38;;;;;;;16.99;34.06;101240.63;5059863;28;20147;-72
2021/04/04 11:49:54;;;;;;;7.90;4.65;;;;;;;17.04;32.17;101230.63;5068976;28;20072;-72
2021/04/04 11:52:21;;;;;;;8.27;4.93;;;;;;;16.25;34.37;101243.25;5064533;28;20047;-73
2021/04/04 11:54:56;;;;;;;7.55;4.20;;;;;;;16.45;34.73;101239.00;5081823;28;20044;-74
2021/04/04 11:57:23;;;;;;;;;;;;;;;17.39;34.15;101219.44;5071596;28;20048;-74
2021/04/04 11:59:53;;;;;;;10.00;4.28;;;;;;;16.68;34.13;101222.16;5089987;28;19932;-72
2021/04/04 12:02:22;;;;;;;11.73;3.95;;;;;;;17.42;33.20;101224.66;5066734;28;20044;-70
2021/04/04 12:05:05;;;;;;;5.68;4.18;;;;;;;16.37;34.40;101214.41;5068735;28;20040;-73
2021/04/04 12:07:32;;;;;;;8.80;3.72;;;;;;;16.68;34.02;101201.69;5089291;28;20040;-73
2021/04/04 12:10:00;;;;;;;6.85;3.65;;;;;;;16.61;35.13;101202.84;5062558;28;20538;-72
2021/04/04 12:12:32;;;;;;;9.77;4.55;;;;;;;17.21;33.30;101193.44;5042434;28;20129;-74
2021/04/04 12:15:00;;;;;;;8.13;4.00;;;;;;;16.60;35.04;101191.31;5040304;28;20071;-73
2021/04/04 12:17:29;;;;;;;5.40;3.20;;;;;;;17.24;33.99;101193.34;5063542;28;20543;-74
2021/04/04 12:19:56;;;;;;;9.93;4.18;;;;;;;15.68;35.98;101192.78;5061423;28;20072;-74
2021/04/04 12:22:45;;;;;;;9.77;4.93;;;;;;;14.16;38.30;101196.38;5063136;28;20468;-71
2021/04/04 12:25:25;;;;;;;9.88;4.07;;;;;;;14.07;38.93;101192.19;5068211;28;20056;-71
2021/04/04 12:27:53;;;;;;;7.63;3.80;;;;;;;15.28;37.25;101179.84;5044390;28;20048;-72
2021/04/04 12:30:42;;;;;;;5.55;3.58;;;;;;;16.22;35.02;101159.81;5062857;28;20129;-71
2021/04/04 12:33:09;;;;;;;9.75;3.92;;;;;;;15.96;34.50;101168.72;5050278;28;20032;-72
2021/04/04 12:35:37;;;;;;;7.35;3.30;;;;;;;15.11;36.62;101175.03;5061717;28;20048;-74
2021/04/04 12:38:04;;;;;;;7.78;3.40;;;;;;;14.04;40.20;101171.00;5055482;28;20047;-74
2021/04/04 12:40:31;;;;;;;7.72;3.22;;;;;;;14.06;39.80;101163.88;5065550;28;20041;-72
2021/04/04 12:43:03;;;;;;;4.22;2.53;;;;;;;14.15;38.75;101160.09;5030982;28;20055;-71
2021/04/04 12:45:38;;;;;;;6.75;2.83;;;;;;;13.22;39.96;101168.63;5041519;28;20041;-73
2021/04/04 12:48:22;;;;;;;9.30;3.28;;;;;;;13.01;40.88;101161.13;5064348;28;20057;-72
2021/04/04 12:50:51;;;;;;;7.75;3.53;;;;;;;12.15;42.64;101156.72;5050628;28;20071;-74
2021/04/04 12:53:31;;;;;;;8.77;3.30;;;;;;;12.57;42.69;101157.66;5037698;28;20086;-73
2021/04/04 12:55:59;;;;;;;9.25;3.50;;;;;;;11.86;43.80;101157.28;5057419;28;20666;-75
2021/04/04 12:58:30;;;;;;;8.75;3.60;;;;;;;12.12;43.06;101146.22;5055970;28;20079;-74